Time;durP1;ratioP1;P1;durP2;ratioP2;P2;SDS_P1;SDS_P2;PMS_P1;PMS_P2;Temp;Humidity;BMP_temperature;BMP_pressure;BME280_temperature;BME280_humidity;BME280_pressure;Samples;Min_cycle;Max_cycle;Signal;HPM_P1;HPM_P2
2022/10/25 01:10:16;;;;;;;188.60;9.82;;;;;;;;;;6174001;22;20196;-91
2022/10/25 01:13:21;;;;;;;34.70;5.80;;;;;;;;;;6382004;22;20485;-90
2022/10/25 01:16:29;;;;;;;101.68;7.15;;;;;;;;;;6382457;22;20192;-91
2022/10/25 01:19:50;;;;;;;170.07;9.82;;;;;;;;;;6380635;22;20167;-92
2022/10/25 01:23:00;;;;;;;71.68;6.50;;;;;;;;;;6382046;22;20191;-89
2022/10/25 01:26:17;;;;;;;278.58;12.02;;;;;;;;;;6381995;22;20162;-92
2022/10/25 01:29:37;;;;;;;111.80;6.43;;;;;;;;;;6381094;22;20245;-88
2022/10/25 01:32:46;;;;;;;338.30;11.32;;;;;;;;;;6380865;22;20193;-90
2022/10/25 01:35:53;;;;;;;219.65;9.50;;;;;;;;;;6380636;22;20263;-87
2022/10/25 01:39:01;;;;;;;255.32;10.15;;;;;;;;;;6380421;22;20250;-91
2022/10/25 01:42:08;;;;;;;294.33;12.48;;;;;;;;;;6379585;22;20188;-91
2022/10/25 01:45:45;;;;;;;263.67;10.32;;;;;;;;;;6380874;22;20155;-92
2022/10/25 01:48:56;;;;;;;275.90;10.65;;;;;;;;;;6380332;22;20168;-87
2022/10/25 01:52:02;;;;;;;197.98;9.23;;;;;;;;;;6381435;22;20214;-91
2022/10/25 01:55:09;;;;;;;89.60;6.68;;;;;;;;;;6380445;22;20222;-93
2022/10/25 01:58:21;;;;;;;326.30;10.18;;;;;;;;;;6381998;22;20172;-90
2022/10/25 02:01:32;;;;;;;71.32;4.13;;;;;;;;;;6381787;22;20186;-86
2022/10/25 02:04:44;;;;;;;265.75;8.95;;;;;;;;;;6380724;22;20172;-87
2022/10/25 02:07:56;;;;;;;227.10;8.05;;;;;;;;;;6381848;22;20176;-90
2022/10/25 02:11:04;;;;;;;313.45;10.48;;;;;;;;;;6381223;22;20191;-92
2022/10/25 02:14:15;;;;;;;93.03;6.25;;;;;;;;;;6380411;22;20167;-89
2022/10/25 02:17:22;;;;;;;148.32;7.28;;;;;;;;;;6381432;22;20618;-88
2022/10/25 02:20:30;;;;;;;172.13;9.10;;;;;;;;;;6381888;22;20175;-93
2022/10/25 02:23:36;;;;;;;280.25;10.05;;;;;;;;;;6381467;22;20167;-90
2022/10/25 02:26:42;;;;;;;89.55;4.95;;;;;;;;;;6382777;22;20148;-88
2022/10/25 02:29:48;;;;;;;192.75;7.60;;;;;;;;;;6381957;22;20249;-87
2022/10/25 02:32:53;;;;;;;235.80;9.02;;;;;;;;;;6381336;22;20167;-89
2022/10/25 02:36:13;;;;;;;135.85;7.03;;;;;;;;;;6381664;22;20187;-88
2022/10/25 02:39:18;;;;;;;147.82;7.40;;;;;;;;;;6382675;22;20171;-91
2022/10/25 02:42:25;;;;;;;121.20;6.50;;;;;;;;;;6382825;22;20179;-92
2022/10/25 02:45:29;;;;;;;124.57;6.80;;;;;;;;;;6380915;22;20167;-89
2022/10/25 02:48:35;;;;;;;77.00;5.53;;;;;;;;;;6377996;22;20163;-89
2022/10/25 02:51:41;;;;;;;61.05;4.95;;;;;;;;;;6380072;22;20199;-90
2022/10/25 02:54:46;;;;;;;62.03;5.38;;;;;;;;;;6376988;22;20206;-90
2022/10/25 02:57:51;;;;;;;117.60;6.22;;;;;;;;;;6379434;22;20151;-88
2022/10/25 03:00:57;;;;;;;38.92;4.32;;;;;;;;;;6379470;22;20186;-93
2022/10/25 03:04:01;;;;;;;75.13;5.45;;;;;;;;;;6379644;22;20282;-88
2022/10/25 03:07:07;;;;;;;80.03;5.82;;;;;;;;;;6382146;22;20168;-89
2022/10/25 03:10:13;;;;;;;82.82;6.07;;;;;;;;;;6379775;22;20210;-88
2022/10/25 03:13:18;;;;;;;98.22;6.40;;;;;;;;;;6381802;22;20160;-85
2022/10/25 03:16:23;;;;;;;178.10;7.35;;;;;;;;;;6381693;22;20192;-87
2022/10/25 03:19:29;;;;;;;177.60;8.98;;;;;;;;;;6380629;22;20223;-90
2022/10/25 03:22:36;;;;;;;106.07;7.88;;;;;;;;;;6381769;22;20160;-88
2022/10/25 03:25:41;;;;;;;163.45;8.18;;;;;;;;;;6383927;22;20168;-92
2022/10/25 03:28:46;;;;;;;309.95;12.98;;;;;;;;;;6382544;22;20167;-88
2022/10/25 03:31:51;;;;;;;71.88;5.88;;;;;;;;;;6381914;22;20167;-90
2022/10/25 03:34:56;;;;;;;61.92;5.45;;;;;;;;;;6382338;22;20171;-89
2022/10/25 03:38:11;;;;;;;71.85;5.05;;;;;;;;;;6382781;22;20167;-89
2022/10/25 03:41:16;;;;;;;26.38;4.22;;;;;;;;;;6382113;22;20221;-88
2022/10/25 03:44:21;;;;;;;32.45;4.88;;;;;;;;;;6381104;22;20211;-87
2022/10/25 03:47:26;;;;;;;64.07;6.05;;;;;;;;;;6381590;22;20214;-91
2022/10/25 03:50:32;;;;;;;15.52;5.40;;;;;;;;;;6383439;22;20171;-91
2022/10/25 03:53:39;;;;;;;31.52;5.50;;;;;;;;;;6383025;22;20175;-92
2022/10/25 03:56:44;;;;;;;44.55;5.00;;;;;;;;;;6382710;22;20241;-89
2022/10/25 03:59:49;;;;;;;50.22;5.93;;;;;;;;;;6381942;22;20618;-90
2022/10/25 04:03:01;;;;;;;56.50;6.10;;;;;;;;;;6383147;22;20155;-88
2022/10/25 04:06:05;;;;;;;50.70;5.72;;;;;;;;;;6381653;22;20159;-88
2022/10/25 04:09:12;;;;;;;72.13;6.05;;;;;;;;;;6383583;22;20152;-90
2022/10/25 04:12:17;;;;;;;44.88;5.50;;;;;;;;;;6383094;22;20286;-87
2022/10/25 04:15:22;;;;;;;30.48;4.88;;;;;;;;;;6381376;22;20187;-87
2022/10/25 04:18:27;;;;;;;23.50;3.55;;;;;;;;;;6381706;22;20171;-91
2022/10/25 04:21:32;;;;;;;16.17;3.47;;;;;;;;;;6382482;22;20167;-91
2022/10/25 04:24:39;;;;;;;11.50;3.15;;;;;;;;;;6380531;22;20168;-86
2022/10/25 04:27:44;;;;;;;19.30;3.78;;;;;;;;;;6381013;22;20160;-91
2022/10/25 04:30:51;;;;;;;16.80;3.97;;;;;;;;;;6380438;22;20246;-89
2022/10/25 04:33:57;;;;;;;16.35;4.90;;;;;;;;;;6382877;22;20167;-91
2022/10/25 04:37:02;;;;;;;44.67;4.78;;;;;;;;;;6382590;22;20273;-91
2022/10/25 04:40:09;;;;;;;54.22;4.78;;;;;;;;;;6382924;22;20167;-89
2022/10/25 04:43:14;;;;;;;15.35;4.00;;;;;;;;;;6383283;22;20206;-90
2022/10/25 04:46:20;;;;;;;27.42;4.15;;;;;;;;;;6382650;22;20198;-91
2022/10/25 04:49:25;;;;;;;20.35;4.38;;;;;;;;;;6383545;22;20164;-90
2022/10/25 04:52:31;;;;;;;49.33;4.75;;;;;;;;;;6382807;22;20618;-88
2022/10/25 04:55:37;;;;;;;22.98;3.95;;;;;;;;;;6382186;22;20187;-90
2022/10/25 04:58:43;;;;;;;85.95;5.18;;;;;;;;;;6382076;22;20602;-88
2022/10/25 05:01:48;;;;;;;29.63;3.55;;;;;;;;;;6383375;22;20172;-89
2022/10/25 05:04:53;;;;;;;12.75;4.05;;;;;;;;;;6384575;22;20164;-86
2022/10/25 05:07:58;;;;;;;20.52;5.15;;;;;;;;;;6383015;22;20245;-87
2022/10/25 05:11:05;;;;;;;35.85;4.68;;;;;;;;;;6384960;22;20274;-86
2022/10/25 05:14:10;;;;;;;27.92;4.55;;;;;;;;;;6383417;22;20191;-88
2022/10/25 05:17:15;;;;;;;21.88;4.70;;;;;;;;;;6382033;22;20302;-87
2022/10/25 05:20:21;;;;;;;16.60;4.10;;;;;;;;;;6385425;22;20156;-87
2022/10/25 05:23:26;;;;;;;28.58;4.22;;;;;;;;;;6382149;22;20171;-91
2022/10/25 05:26:33;;;;;;;25.52;3.95;;;;;;;;;;6382308;22;20171;-90
2022/10/25 05:29:39;;;;;;;23.92;4.95;;;;;;;;;;6386486;22;20167;-88
2022/10/25 05:32:45;;;;;;;24.20;4.80;;;;;;;;;;6383410;22;20190;-89
2022/10/25 05:35:50;;;;;;;32.75;3.80;;;;;;;;;;6382050;22;20203;-87
2022/10/25 05:38:55;;;;;;;22.45;4.07;;;;;;;;;;6385263;22;20152;-89
2022/10/25 05:42:05;;;;;;;22.33;4.82;;;;;;;;;;6384976;22;20164;-90
2022/10/25 05:45:11;;;;;;;65.80;22.88;;;;;;;;;;6382646;22;20187;-89
2022/10/25 05:48:17;;;;;;;32.47;6.88;;;;;;;;;;6384536;22;20164;-89
2022/10/25 05:51:24;;;;;;;36.50;4.30;;;;;;;;;;6384157;22;20241;-88
2022/10/25 05:54:31;;;;;;;27.60;4.28;;;;;;;;;;6386305;22;20152;-87
2022/10/25 05:57:38;;;;;;;30.67;4.00;;;;;;;;;;6385971;22;20192;-89
2022/10/25 06:00:44;;;;;;;26.00;3.97;;;;;;;;;;6386124;22;20221;-90
2022/10/25 06:03:51;;;;;;;31.60;4.03;;;;;;;;;;6386022;22;20166;-90
2022/10/25 06:07:08;;;;;;;26.55;4.13;;;;;;;;;;6387743;22;20171;-89
2022/10/25 06:10:15;;;;;;;31.02;4.82;;;;;;;;;;6387654;22;20191;-88
2022/10/25 06:13:22;;;;;;;44.03;4.63;;;;;;;;;;6386461;22;20168;-89
2022/10/25 06:16:27;;;;;;;28.58;4.32;;;;;;;;;;6385892;22;20234;-86
2022/10/25 06:19:32;;;;;;;44.95;4.70;;;;;;;;;;6385778;22;20166;-90
2022/10/25 06:22:38;;;;;;;34.75;3.90;;;;;;;;;;6382947;22;20171;-86
2022/10/25 06:25:44;;;;;;;8.38;3.80;;;;;;;;;;6385583;22;20167;-91
2022/10/25 06:28:52;;;;;;;19.73;4.07;;;;;;;;;;6385426;22;20183;-92
2022/10/25 06:31:57;;;;;;;10.48;3.92;;;;;;;;;;6385337;22;20172;-89
2022/10/25 06:35:03;;;;;;;16.67;4.50;;;;;;;;;;6384391;22;20172;-89
2022/10/25 06:38:08;;;;;;;7.50;4.28;;;;;;;;;;6383710;22;20167;-90
2022/10/25 06:41:14;;;;;;;11.02;4.30;;;;;;;;;;6382790;22;20488;-90
2022/10/25 06:44:29;;;;;;;11.00;4.07;;;;;;;;;;6385074;22;20167;-88
2022/10/25 06:47:34;;;;;;;16.05;4.65;;;;;;;;;;6381667;22;20187;-91
2022/10/25 06:50:39;;;;;;;28.02;4.70;;;;;;;;;;6381123;22;20226;-93
2022/10/25 06:53:43;;;;;;;54.20;5.47;;;;;;;;;;6382033;22;20167;-89
2022/10/25 06:56:49;;;;;;;12.77;4.22;;;;;;;;;;6381988;22;20255;-89
2022/10/25 06:59:55;;;;;;;13.07;4.15;;;;;;;;;;6383744;22;20242;-88
2022/10/25 07:03:01;;;;;;;17.90;4.85;;;;;;;;;;6385578;22;20168;-89
2022/10/25 07:06:08;;;;;;;33.25;4.63;;;;;;;;;;6383355;22;20744;-88
2022/10/25 07:09:14;;;;;;;16.40;4.95;;;;;;;;;;6384143;22;20168;-91
2022/10/25 07:12:19;;;;;;;13.18;6.40;;;;;;;;;;6383280;22;20166;-90
2022/10/25 07:15:26;;;;;;;10.48;5.45;;;;;;;;;;6384672;22;20240;-89
2022/10/25 07:18:33;;;;;;;16.15;5.43;;;;;;;;;;6384558;22;20160;-91
2022/10/25 07:21:39;;;;;;;17.10;7.15;;;;;;;;;;6384845;22;20171;-88
2022/10/25 07:24:44;;;;;;;40.22;8.80;;;;;;;;;;6383654;22;20171;-88
2022/10/25 07:27:49;;;;;;;19.30;8.27;;;;;;;;;;6388530;22;20172;-88
2022/10/25 07:30:57;;;;;;;12.55;5.82;;;;;;;;;;6385221;22;20166;-89
2022/10/25 07:34:02;;;;;;;10.73;5.78;;;;;;;;;;6385325;22;20617;-92
2022/10/25 07:37:08;;;;;;;15.45;5.40;;;;;;;;;;6386437;22;20191;-90
2022/10/25 07:40:13;;;;;;;7.60;4.32;;;;;;;;;;6386237;22;20169;-89
2022/10/25 07:43:19;;;;;;;12.02;4.75;;;;;;;;;;6383395;22;20195;-92
2022/10/25 07:46:25;;;;;;;14.38;8.50;;;;;;;;;;6385950;22;20250;-90
2022/10/25 07:49:30;;;;;;;11.88;5.15;;;;;;;;;;6386486;22;20168;-89
2022/10/25 07:52:36;;;;;;;12.05;4.75;;;;;;;;;;6383246;22;20163;-91
2022/10/25 07:55:41;;;;;;;9.48;4.30;;;;;;;;;;6384134;22;20179;-90
2022/10/25 07:58:46;;;;;;;10.10;3.78;;;;;;;;;;6386391;22;20164;-90
2022/10/25 08:01:56;;;;;;;13.50;4.85;;;;;;;;;;6385963;22;20168;-90
2022/10/25 08:05:11;;;;;;;11.98;4.57;;;;;;;;;;6384319;22;20222;-88
2022/10/25 08:08:19;;;;;;;10.05;3.80;;;;;;;;;;6386376;22;20206;-89
2022/10/25 08:11:25;;;;;;;8.25;4.68;;;;;;;;;;6385287;22;20523;-89
2022/10/25 08:14:30;;;;;;;8.80;4.18;;;;;;;;;;6387234;22;20693;-91
2022/10/25 08:17:36;;;;;;;14.43;5.70;;;;;;;;;;6386003;22;20192;-89
2022/10/25 08:20:42;;;;;;;7.72;4.50;;;;;;;;;;6384104;22;20167;-90
2022/10/25 08:23:47;;;;;;;12.30;4.07;;;;;;;;;;6385524;22;20210;-89
2022/10/25 08:26:53;;;;;;;10.52;3.70;;;;;;;;;;6385223;22;20172;-89
2022/10/25 08:29:59;;;;;;;14.13;4.00;;;;;;;;;;6366681;22;20163;-88
2022/10/25 08:33:10;;;;;;;7.50;4.22;;;;;;;;;;6382717;22;20218;-87
2022/10/25 08:36:15;;;;;;;9.60;4.05;;;;;;;;;;6383320;22;20571;-89
2022/10/25 08:39:21;;;;;;;5.82;3.03;;;;;;;;;;6383850;22;20659;-88
2022/10/25 08:42:32;;;;;;;5.03;2.78;;;;;;;;;;6382453;22;20159;-88
2022/10/25 08:45:41;;;;;;;5.18;3.22;;;;;;;;;;6383542;22;20206;-89
2022/10/25 08:48:50;;;;;;;7.07;3.35;;;;;;;;;;6383423;22;20168;-88
2022/10/25 08:51:55;;;;;;;6.60;2.88;;;;;;;;;;6386832;22;20172;-86
2022/10/25 08:55:02;;;;;;;7.03;3.88;;;;;;;;;;6383927;22;20228;-91
2022/10/25 08:58:12;;;;;;;9.55;3.47;;;;;;;;;;6383545;22;20232;-91
2022/10/25 09:01:19;;;;;;;6.75;3.00;;;;;;;;;;6382536;22;20168;-87
2022/10/25 09:04:28;;;;;;;12.27;3.38;;;;;;;;;;6383313;22;20207;-89
2022/10/25 09:07:38;;;;;;;5.75;3.20;;;;;;;;;;6385590;22;20171;-89
2022/10/25 09:10:50;;;;;;;5.45;3.15;;;;;;;;;;6381564;22;20191;-90
2022/10/25 09:13:59;;;;;;;13.57;3.55;;;;;;;;;;6383950;22;20175;-89
2022/10/25 09:17:07;;;;;;;10.60;3.97;;;;;;;;;;6383739;22;20650;-90
2022/10/25 09:20:19;;;;;;;11.48;4.65;;;;;;;;;;6384676;22;20171;-90
2022/10/25 09:23:28;;;;;;;11.10;3.47;;;;;;;;;;6381783;22;20211;-91
2022/10/25 09:26:40;;;;;;;5.82;3.50;;;;;;;;;;6383040;22;20543;-89
2022/10/25 09:29:47;;;;;;;7.88;3.30;;;;;;;;;;6382951;22;20172;-90
2022/10/25 09:32:55;;;;;;;8.40;3.55;;;;;;;;;;6382787;22;20163;-89
2022/10/25 09:36:04;;;;;;;14.63;3.55;;;;;;;;;;6385302;22;20168;-91
2022/10/25 09:39:13;;;;;;;9.85;3.30;;;;;;;;;;6384517;22;20164;-92
2022/10/25 09:42:22;;;;;;;10.80;3.85;;;;;;;;;;6382595;22;20228;-89
2022/10/25 09:45:39;;;;;;;11.13;4.78;;;;;;;;;;6383583;22;20168;-89
2022/10/25 09:48:47;;;;;;;12.07;4.35;;;;;;;;;;6382131;22;20214;-88
2022/10/25 09:51:56;;;;;;;9.07;4.60;;;;;;;;;;6383406;22;20170;-89
2022/10/25 09:55:06;;;;;;;8.65;3.80;;;;;;;;;;6382959;22;20292;-89
2022/10/25 09:58:19;;;;;;;10.43;5.07;;;;;;;;;;6381417;22;20188;-89
2022/10/25 10:01:26;;;;;;;13.05;3.47;;;;;;;;;;6384270;22;20160;-90
2022/10/25 10:04:35;;;;;;;4.93;2.88;;;;;;;;;;6384180;22;20520;-92
2022/10/25 10:07:43;;;;;;;10.02;3.63;;;;;;;;;;6383943;22;20179;-92
2022/10/25 10:10:49;;;;;;;11.73;4.00;;;;;;;;;;6384237;22;20257;-88
2022/10/25 10:13:58;;;;;;;7.07;4.18;;;;;;;;;;6383613;22;20168;-88
2022/10/25 10:17:06;;;;;;;8.77;3.85;;;;;;;;;;6384269;22;20263;-88
2022/10/25 10:20:13;;;;;;;11.18;5.28;;;;;;;;;;6383948;22;20172;-89
2022/10/25 10:23:21;;;;;;;10.02;4.43;;;;;;;;;;6383456;22;20183;-89
2022/10/25 10:26:29;;;;;;;10.68;3.97;;;;;;;;;;6383032;22;20171;-89
2022/10/25 10:29:36;;;;;;;7.90;3.75;;;;;;;;;;6384140;22;20170;-87
2022/10/25 10:32:41;;;;;;;11.77;4.38;;;;;;;;;;6383623;22;20179;-88
2022/10/25 10:35:47;;;;;;;8.55;4.00;;;;;;;;;;6386353;22;20168;-89
2022/10/25 10:38:54;;;;;;;13.10;4.00;;;;;;;;;;6386326;22;20676;-91
2022/10/25 10:42:02;;;;;;;23.60;9.23;;;;;;;;;;6385819;22;20168;-90
2022/10/25 10:45:16;;;;;;;10.82;4.10;;;;;;;;;;6386230;22;20190;-88
2022/10/25 10:48:22;;;;;;;7.82;3.47;;;;;;;;;;6384888;22;20237;-89
2022/10/25 10:51:36;;;;;;;8.88;3.10;;;;;;;;;;6388466;22;20202;-89
2022/10/25 10:54:49;;;;;;;8.52;3.20;;;;;;;;;;6387064;22;20164;-91
2022/10/25 10:57:56;;;;;;;5.22;2.58;;;;;;;;;;6385450;22;20206;-89
2022/10/25 11:01:04;;;;;;;12.38;3.00;;;;;;;;;;6386894;22;20152;-88
2022/10/25 11:04:10;;;;;;;5.75;2.58;;;;;;;;;;6385886;22;20168;-89
2022/10/25 11:07:21;;;;;;;8.27;2.50;;;;;;;;;;6385232;22;20221;-92
2022/10/25 11:10:29;;;;;;;5.47;2.08;;;;;;;;;;6384208;22;20191;-89
2022/10/25 11:16:57;;;;;;;5.72;1.95;;;;;;;;;;6385924;22;20184;-87
2022/10/25 11:20:15;;;;;;;7.00;2.33;;;;;;;;;;6384886;22;20168;-92
2022/10/25 11:23:24;;;;;;;9.02;2.83;;;;;;;;;;6385487;22;20322;-90
2022/10/25 11:26:37;;;;;;;5.38;2.38;;;;;;;;;;6385686;22;20167;-91
2022/10/25 11:29:58;;;;;;;3.50;1.67;;;;;;;;;;6387050;22;20163;-90
2022/10/25 11:33:32;;;;;;;30.02;3.45;;;;;;;;;;6386954;22;20232;-89
2022/10/25 11:36:43;;;;;;;5.47;2.00;;;;;;;;;;6357511;22;20188;-91
2022/10/25 11:39:56;;;;;;;12.05;2.60;;;;;;;;;;6387457;22;20236;-90
2022/10/25 11:43:10;;;;;;;11.88;2.58;;;;;;;;;;6386314;22;20601;-88
2022/10/25 11:46:18;;;;;;;12.80;4.30;;;;;;;;;;6385841;22;20209;-88
2022/10/25 11:49:32;;;;;;;7.95;4.25;;;;;;;;;;6384032;22;20167;-91
2022/10/25 11:52:43;;;;;;;7.47;2.40;;;;;;;;;;6384050;22;20167;-88
2022/10/25 11:55:50;;;;;;;5.30;1.80;;;;;;;;;;6384592;22;20159;-89
2022/10/25 11:59:03;;;;;;;4.32;1.70;;;;;;;;;;6386711;22;20251;-91
2022/10/25 12:02:19;;;;;;;4.43;1.63;;;;;;;;;;6385337;22;20159;-90
2022/10/25 12:05:29;;;;;;;5.13;1.90;;;;;;;;;;6384930;22;20209;-89
2022/10/25 12:08:38;;;;;;;4.03;1.77;;;;;;;;;;6385774;22;20193;-90
2022/10/25 12:11:45;;;;;;;5.97;1.60;;;;;;;;;;6383858;22;20184;-92
2022/10/25 12:14:53;;;;;;;3.05;1.70;;;;;;;;;;6381181;22;20172;-90
2022/10/25 12:17:59;;;;;;;5.28;1.88;;;;;;;;;;6381615;22;20253;-91
2022/10/25 12:21:05;;;;;;;7.95;2.05;;;;;;;;;;6380944;22;20159;-88
2022/10/25 12:24:16;;;;;;;7.88;1.67;;;;;;;;;;6381946;22;20294;-90
2022/10/25 12:27:22;;;;;;;12.68;1.83;;;;;;;;;;6383361;22;20164;-91
2022/10/25 12:30:30;;;;;;;5.28;2.00;;;;;;;;;;6382399;22;20160;-89
2022/10/25 12:33:36;;;;;;;5.10;1.98;;;;;;;;;;6382307;22;20214;-89
2022/10/25 12:36:45;;;;;;;56.92;4.80;;;;;;;;;;6383607;22;20167;-89
2022/10/25 12:39:51;;;;;;;4.45;1.70;;;;;;;;;;6381555;22;20199;-89
2022/10/25 12:42:58;;;;;;;27.60;11.50;;;;;;;;;;6383667;22;20639;-89
2022/10/25 12:46:23;;;;;;;16.15;2.22;;;;;;;;;;6385495;22;20268;-89
2022/10/25 12:49:49;;;;;;;23.95;3.75;;;;;;;;;;6386013;22;20218;-88
2022/10/25 12:53:09;;;;;;;12.65;2.13;;;;;;;;;;6383731;22;20668;-89
2022/10/25 12:56:19;;;;;;;4.90;1.75;;;;;;;;;;6383415;22;20179;-88
2022/10/25 12:59:40;;;;;;;6.05;1.48;;;;;;;;;;6384022;22;20330;-88
2022/10/25 13:03:04;;;;;;;31.17;8.85;;;;;;;;;;6385349;22;20163;-88
2022/10/25 13:06:18;;;;;;;13.57;4.68;;;;;;;;;;6387206;22;20219;-90
2022/10/25 13:09:25;;;;;;;5.65;1.65;;;;;;;;;;6383942;22;20222;-92
2022/10/25 13:12:32;;;;;;;10.95;2.22;;;;;;;;;;6384196;22;20230;-90
2022/10/25 13:15:42;;;;;;;10.73;1.38;;;;;;;;;;6383846;22;20191;-91
2022/10/25 13:19:14;;;;;;;7.70;1.60;;;;;;;;;;6384934;22;20171;-88
2022/10/25 13:22:38;;;;;;;8.05;1.63;;;;;;;;;;6383722;22;20202;-89
2022/10/25 13:26:06;;;;;;;4.13;1.70;;;;;;;;;;6382738;22;20164;-89
2022/10/25 13:29:27;;;;;;;44.75;7.10;;;;;;;;;;6382254;22;20190;-89
2022/10/25 13:32:46;;;;;;;15.82;7.18;;;;;;;;;;6381668;22;20164;-89
2022/10/25 13:36:05;;;;;;;8.75;2.90;;;;;;;;;;6383785;22;20607;-90
2022/10/25 13:39:15;;;;;;;15.55;4.90;;;;;;;;;;6385879;22;20192;-90
2022/10/25 13:42:28;;;;;;;9.68;3.33;;;;;;;;;;6380405;22;20164;-89
2022/10/25 13:45:40;;;;;;;8.20;2.33;;;;;;;;;;6382023;22;20172;-89
2022/10/25 13:48:46;;;;;;;4.85;1.38;;;;;;;;;;6381400;22;20164;-88
2022/10/25 13:51:54;;;;;;;6.97;1.25;;;;;;;;;;6381816;22;20425;-90
2022/10/25 13:55:01;;;;;;;7.60;1.30;;;;;;;;;;6384127;22;20176;-89
2022/10/25 14:01:55;;;;;;;8.20;1.60;;;;;;;;;;6385244;22;20251;-89
2022/10/25 14:05:01;;;;;;;6.10;1.98;;;;;;;;;;6382521;22;20172;-91
2022/10/25 14:08:14;;;;;;;7.32;1.80;;;;;;;;;;6381974;22;20163;-95
2022/10/25 14:11:21;;;;;;;4.40;2.13;;;;;;;;;;6384525;22;20179;-91
2022/10/25 14:14:29;;;;;;;3.88;1.85;;;;;;;;;;6384349;22;20241;-90
2022/10/25 14:17:36;;;;;;;4.30;2.10;;;;;;;;;;6381746;22;20171;-92
2022/10/25 14:20:45;;;;;;;5.15;2.03;;;;;;;;;;6378234;22;20225;-90
2022/10/25 14:23:51;;;;;;;3.15;1.70;;;;;;;;;;6382023;22;20241;-90
2022/10/25 14:26:57;;;;;;;6.35;1.70;;;;;;;;;;6380803;22;20171;-90
2022/10/25 14:30:12;;;;;;;9.50;3.22;;;;;;;;;;6382115;22;20163;-89
2022/10/25 14:33:22;;;;;;;10.32;2.40;;;;;;;;;;6382064;22;20488;-90
2022/10/25 14:36:30;;;;;;;11.30;3.83;;;;;;;;;;6381559;22;20232;-89
2022/10/25 14:39:36;;;;;;;12.75;3.40;;;;;;;;;;6387409;22;20295;-92
2022/10/25 14:42:42;;;;;;;13.30;2.92;;;;;;;;;;6387616;22;20242;-88
2022/10/25 14:46:06;;;;;;;5.38;2.30;;;;;;;;;;6383676;22;20167;-88
2022/10/25 14:49:11;;;;;;;3.78;2.00;;;;;;;;;;6383461;22;20167;-89
2022/10/25 14:52:18;;;;;;;7.95;2.35;;;;;;;;;;6383770;22;20151;-88
2022/10/25 14:55:28;;;;;;;6.57;2.30;;;;;;;;;;6386832;22;20170;-88
2022/10/25 15:02:00;;;;;;;6.20;2.05;;;;;;;;;;6381526;22;20168;-90
2022/10/25 15:05:06;;;;;;;6.65;2.63;;;;;;;;;;6382526;22;20172;-89
2022/10/25 15:08:18;;;;;;;17.60;7.47;;;;;;;;;;6386364;22;20194;-88
2022/10/25 15:11:24;;;;;;;249.15;82.18;;;;;;;;;;6388734;22;20194;-89
2022/10/25 15:14:40;;;;;;;21.52;10.18;;;;;;;;;;6386960;22;20191;-88
2022/10/25 15:17:51;;;;;;;10.70;3.10;;;;;;;;;;6385475;22;20168;-91
2022/10/25 15:21:02;;;;;;;8.63;3.45;;;;;;;;;;6387116;22;20164;-90
2022/10/25 15:24:10;;;;;;;7.03;2.05;;;;;;;;;;6387165;22;20245;-91
2022/10/25 15:27:26;;;;;;;6.60;2.33;;;;;;;;;;6389601;22;20194;-90
2022/10/25 15:30:38;;;;;;;5.75;1.65;;;;;;;;;;6386627;22;20210;-90
2022/10/25 15:33:44;;;;;;;5.10;1.83;;;;;;;;;;6383024;22;20172;-90
2022/10/25 15:36:50;;;;;;;11.13;3.42;;;;;;;;;;6387953;22;20198;-89
2022/10/25 15:39:59;;;;;;;7.75;2.90;;;;;;;;;;6386354;22;20234;-88
2022/10/25 15:43:05;;;;;;;13.88;4.35;;;;;;;;;;6385962;22;20167;-88
2022/10/25 15:50:16;;;;;;;12.15;3.70;;;;;;;;;;6385531;22;20163;-90
2022/10/25 15:53:21;;;;;;;15.07;4.03;;;;;;;;;;6383653;22;20172;-90
2022/10/25 15:56:28;;;;;;;7.70;3.10;;;;;;;;;;6385628;22;20184;-91
2022/10/25 15:59:35;;;;;;;6.85;2.83;;;;;;;;;;6385445;22;20229;-89
2022/10/25 16:02:41;;;;;;;5.05;2.22;;;;;;;;;;6388285;22;20168;-89
2022/10/25 16:05:53;;;;;;;10.00;3.30;;;;;;;;;;6386041;22;20179;-90
2022/10/25 16:08:58;;;;;;;8.98;3.20;;;;;;;;;;6388178;22;20257;-90
2022/10/25 16:12:09;;;;;;;7.10;2.70;;;;;;;;;;6385051;22;20203;-88
2022/10/25 16:15:15;;;;;;;10.13;2.33;;;;;;;;;;6387414;22;20171;-90
2022/10/25 16:18:20;;;;;;;23.67;7.80;;;;;;;;;;6385957;22;20175;-90
2022/10/25 16:21:28;;;;;;;11.88;3.72;;;;;;;;;;6352516;22;20181;-90
2022/10/25 16:24:35;;;;;;;14.05;4.53;;;;;;;;;;6355815;22;20169;-91
2022/10/25 16:27:43;;;;;;;20.77;6.93;;;;;;;;;;6355231;22;20172;-91
2022/10/25 16:30:51;;;;;;;17.83;5.93;;;;;;;;;;6354621;22;20169;-90
2022/10/25 16:33:56;;;;;;;23.50;6.30;;;;;;;;;;6355269;22;20187;-89
2022/10/25 16:37:02;;;;;;;17.02;5.47;;;;;;;;;;6355007;22;20173;-90
2022/10/25 16:40:07;;;;;;;18.33;6.95;;;;;;;;;;6355241;22;20187;-91
2022/10/25 16:43:19;;;;;;;28.08;8.57;;;;;;;;;;6352335;22;20155;-90
2022/10/25 16:46:25;;;;;;;17.02;6.97;;;;;;;;;;6352095;22;20168;-88
2022/10/25 16:49:31;;;;;;;15.70;5.78;;;;;;;;;;6352167;22;20164;-91
2022/10/25 16:52:36;;;;;;;25.23;9.35;;;;;;;;;;6351112;22;20176;-90
2022/10/25 16:55:42;;;;;;;25.20;9.48;;;;;;;;;;6351710;22;20163;-89
2022/10/25 16:58:49;;;;;;;17.95;9.50;;;;;;;;;;6352177;22;20192;-89
2022/10/25 17:01:55;;;;;;;7.95;4.20;;;;;;;;;;6349461;22;20507;-88
2022/10/25 17:05:01;;;;;;;12.05;5.60;;;;;;;;;;6350502;22;20211;-88
2022/10/25 17:08:06;;;;;;;13.10;6.35;;;;;;;;;;6351442;22;20586;-90
2022/10/25 17:11:11;;;;;;;24.33;7.55;;;;;;;;;;6352538;22;20231;-89
2022/10/25 17:14:19;;;;;;;17.08;6.50;;;;;;;;;;6350451;22;20172;-88
2022/10/25 17:17:24;;;;;;;13.73;6.80;;;;;;;;;;6351440;22;20148;-90
2022/10/25 17:20:30;;;;;;;22.33;10.40;;;;;;;;;;6351974;22;20260;-87
2022/10/25 17:23:35;;;;;;;33.45;14.27;;;;;;;;;;6352597;22;20177;-88
2022/10/25 17:26:40;;;;;;;26.38;10.85;;;;;;;;;;6351771;22;20215;-90
2022/10/25 17:29:47;;;;;;;22.58;7.75;;;;;;;;;;6351216;22;20184;-89
2022/10/25 17:32:52;;;;;;;22.15;7.47;;;;;;;;;;6350094;22;20176;-89
2022/10/25 17:35:58;;;;;;;13.68;5.70;;;;;;;;;;6353704;22;20214;-91
2022/10/25 17:39:03;;;;;;;12.70;5.88;;;;;;;;;;6351033;22;20684;-91
2022/10/25 17:42:09;;;;;;;21.58;6.88;;;;;;;;;;6352803;22;20172;-89
2022/10/25 17:45:19;;;;;;;16.10;6.05;;;;;;;;;;6352367;22;20169;-88
2022/10/25 17:48:26;;;;;;;14.73;6.28;;;;;;;;;;6354244;22;20183;-89
2022/10/25 17:51:32;;;;;;;19.25;9.15;;;;;;;;;;6351083;22;20172;-89
2022/10/25 17:54:38;;;;;;;67.05;32.47;;;;;;;;;;6349596;22;20630;-87
2022/10/25 17:57:45;;;;;;;40.63;21.10;;;;;;;;;;6349307;22;20172;-91
2022/10/25 18:00:54;;;;;;;75.63;36.40;;;;;;;;;;6351052;22;20192;-90
2022/10/25 18:03:59;;;;;;;21.15;7.95;;;;;;;;;;6351583;22;20238;-88
2022/10/25 18:07:05;;;;;;;18.65;5.55;;;;;;;;;;6351800;22;20180;-87
2022/10/25 18:10:10;;;;;;;22.92;5.47;;;;;;;;;;6350390;22;20680;-87
2022/10/25 18:13:16;;;;;;;13.68;5.70;;;;;;;;;;6349863;22;20677;-89
2022/10/25 18:16:25;;;;;;;17.98;5.78;;;;;;;;;;6351951;22;20210;-89
2022/10/25 18:19:34;;;;;;;14.57;5.30;;;;;;;;;;6352559;22;20189;-88
2022/10/25 18:22:39;;;;;;;16.58;6.20;;;;;;;;;;6346620;22;20175;-91
2022/10/25 18:25:51;;;;;;;25.17;8.55;;;;;;;;;;6350769;22;20192;-90
2022/10/25 18:28:57;;;;;;;30.15;9.60;;;;;;;;;;6348789;22;20203;-88
2022/10/25 18:32:10;;;;;;;24.25;10.00;;;;;;;;;;6352015;22;20168;-90
2022/10/25 18:35:16;;;;;;;14.95;6.82;;;;;;;;;;6348305;22;20310;-90
2022/10/25 18:38:21;;;;;;;13.13;5.82;;;;;;;;;;6348646;22;20638;-89
2022/10/25 18:41:27;;;;;;;26.50;9.77;;;;;;;;;;6348366;22;20164;-86
2022/10/25 18:44:38;;;;;;;25.15;9.05;;;;;;;;;;6347546;22;20235;-92
2022/10/25 18:47:45;;;;;;;28.42;9.95;;;;;;;;;;6348555;22;20182;-89
2022/10/25 18:50:50;;;;;;;14.50;6.50;;;;;;;;;;6346880;22;20176;-87
2022/10/25 18:53:56;;;;;;;13.38;6.07;;;;;;;;;;6347855;22;20176;-88
2022/10/25 18:57:00;;;;;;;11.43;5.88;;;;;;;;;;6350887;22;20168;-90
2022/10/25 19:00:06;;;;;;;14.45;7.68;;;;;;;;;;6353912;22;20261;-90
2022/10/25 19:03:13;;;;;;;19.88;12.18;;;;;;;;;;6352403;22;20173;-88
2022/10/25 19:06:19;;;;;;;24.02;7.03;;;;;;;;;;6352512;22;20174;-88
2022/10/25 19:09:25;;;;;;;24.40;7.60;;;;;;;;;;6355739;22;20152;-90
2022/10/25 19:12:30;;;;;;;20.35;6.70;;;;;;;;;;6352720;22;20164;-90
2022/10/25 19:15:35;;;;;;;16.95;7.13;;;;;;;;;;6353596;22;20163;-91
2022/10/25 19:18:43;;;;;;;20.42;9.23;;;;;;;;;;6356777;22;20215;-89
2022/10/25 19:21:49;;;;;;;23.98;9.02;;;;;;;;;;6354729;22;20190;-90
2022/10/25 19:24:54;;;;;;;33.67;8.27;;;;;;;;;;6354628;22;20172;-88
2022/10/25 19:28:00;;;;;;;17.92;7.45;;;;;;;;;;6354325;22;20168;-91
2022/10/25 19:31:06;;;;;;;25.77;8.18;;;;;;;;;;6354887;22;20173;-90
2022/10/25 19:34:14;;;;;;;27.58;7.53;;;;;;;;;;6355785;22;20168;-89
2022/10/25 19:37:21;;;;;;;27.70;7.50;;;;;;;;;;6353716;22;20161;-88
2022/10/25 19:40:27;;;;;;;21.30;8.30;;;;;;;;;;6355927;22;20251;-89
2022/10/25 19:43:33;;;;;;;31.30;9.07;;;;;;;;;;6355270;22;20192;-90
2022/10/25 19:46:39;;;;;;;23.95;9.02;;;;;;;;;;6356264;22;20618;-89
2022/10/25 19:49:48;;;;;;;30.50;8.60;;;;;;;;;;6352993;22;20245;-86
2022/10/25 19:52:54;;;;;;;16.27;7.68;;;;;;;;;;6353805;22;20172;-89
2022/10/25 19:56:00;;;;;;;34.17;7.78;;;;;;;;;;6353630;22;20175;-87